Panda — H8NH — position and weather

sailwx.info

Track history (hours):
 
Tides and Currents Weather Stations Pressure Air Temp Water Temp Dewpoint Dewpoint Depression Visibility Wind Speed Wind Dir Waves Ship Positions

Panda

Last reported at 2017-Jan-13 02:24 UTC. Time now 2017-Jan-23 06:30 UTC.
Position N 37°23' E 025°55'.
Warning: this ship's position is 10 days out of date.

Length 171 m; draft 9.8 m.

Type: Cargo ship. MMSI: 352528000.

Date/timePositionNaut miles runAvg speedWind from/ knotsBaromVisibWave heightAir tempDewpointWater temp
2017-Jan-13 02:24N 37°23' E 025°55'4411.2
2017-Jan-12 22:27N 38°06' E 025°43'1011.2
2017-Jan-12 21:34N 38°16' E 025°43'1211.2
2017-Jan-12 20:31N 38°27' E 025°42'  
2017-Jan-08 17:19N 46°19' E 030°55'911.1
2017-Jan-08 16:31N 46°28' E 030°55'33 8.2
2017-Jan-08 12:27N 46°36' E 031°43'6 6.9
2017-Jan-08 11:32N 46°37' E 031°52'7 7.3
2017-Jan-08 10:33N 46°43' E 031°56'6 5.7
2017-Jan-08 09:33N 46°49' E 031°54'8 7.7
2017-Jan-08 08:33N 46°55' E 032°01'1 1.4
2017-Jan-08 07:32N 46°56' E 032°01'0 0.1
2017-Jan-08 06:32N 46°56' E 032°01'0 0.0
2017-Jan-08 05:32N 46°56' E 032°01'0 0.0
2017-Jan-08 04:32N 46°56' E 032°01'0 0.0
2017-Jan-08 03:32N 46°56' E 032°01'0 0.0
2017-Jan-08 02:32N 46°56' E 032°01'0 0.0
2017-Jan-08 01:32N 46°56' E 032°01'0 0.0
2017-Jan-08 00:32N 46°56' E 032°01'0 0.0
2017-Jan-07 23:32N 46°56' E 032°01'0 0.0
2017-Jan-07 22:32N 46°56' E 032°00'0 0.0
2017-Jan-07 21:32N 46°56' E 032°01'0 0.0
2017-Jan-07 20:32N 46°56' E 032°01'0 0.0
2017-Jan-07 19:32N 46°56' E 032°01'0 0.0
2017-Jan-07 18:32N 46°56' E 032°01'0 0.0
2017-Jan-07 17:32N 46°56' E 032°00'0 0.0
2017-Jan-07 16:32N 46°56' E 032°00'0 0.0
2017-Jan-07 15:32N 46°56' E 032°00'0 0.0
2017-Jan-07 14:29N 46°56' E 032°01'0 0.0
2017-Jan-07 13:32N 46°56' E 032°00'0 0.0
2017-Jan-07 12:32N 46°56' E 032°00'0 0.0
2017-Jan-07 11:32N 46°56' E 032°01'0 0.0
2017-Jan-07 10:32N 46°56' E 032°00'0 0.0
2017-Jan-07 09:32N 46°56' E 032°01'0 0.0
2017-Jan-07 08:32N 46°56' E 032°00'0 0.0
2017-Jan-07 07:29N 46°56' E 032°01'0 0.0
2017-Jan-07 06:29N 46°56' E 032°00'0 0.0
2017-Jan-07 05:29N 46°56' E 032°00'0 0.0
2017-Jan-07 04:29N 46°56' E 032°00'0 0.0
2017-Jan-07 03:29N 46°56' E 032°01'0 0.0
2017-Jan-07 02:29N 46°56' E 032°00'0 0.0
2017-Jan-07 01:32N 46°56' E 032°00'0 0.0
2017-Jan-07 00:29N 46°56' E 032°00'0 0.0
2017-Jan-06 23:32N 46°56' E 032°01'0 0.0
2017-Jan-06 22:29N 46°56' E 032°00'0 0.0
2017-Jan-06 21:32N 46°56' E 032°01'0 0.0
2017-Jan-06 20:29N 46°56' E 032°01'0 0.0
2017-Jan-06 19:32N 46°56' E 032°00'0 0.0
2017-Jan-06 18:29N 46°56' E 032°00'0 0.0
2017-Jan-06 17:29N 46°56' E 032°00'0 0.0
2017-Jan-06 16:32N 46°56' E 032°01'0 0.0
2017-Jan-06 15:29N 46°56' E 032°01'0 0.0
2017-Jan-06 14:32N 46°56' E 032°01'0 0.0
2017-Jan-06 13:29N 46°56' E 032°01'0 0.0
2017-Jan-06 12:29N 46°56' E 032°01'0 0.0
2017-Jan-06 11:32N 46°56' E 032°01'0 0.0
2017-Jan-06 10:29N 46°56' E 032°01'0 0.0
2017-Jan-06 09:29N 46°56' E 032°01'0 0.0
2017-Jan-06 08:32N 46°56' E 032°01'0 0.0
2017-Jan-06 07:29N 46°56' E 032°01'1 1.1
2017-Jan-06 06:31N 46°57' E 031°59'0 0.0
2017-Jan-06 05:28N 46°57' E 031°59'0 0.0
2017-Jan-06 04:31N 46°57' E 031°59'0 0.0
2017-Jan-06 03:32N 46°57' E 031°59'0 0.0
2017-Jan-06 02:31N 46°57' E 031°59'0 0.0
2017-Jan-06 01:31N 46°57' E 031°59'0 0.0
2017-Jan-06 00:31N 46°57' E 031°59'0 0.0
2017-Jan-05 23:31N 46°57' E 031°59'0 0.0
2017-Jan-05 22:32N 46°57' E 031°59'0 0.0
2017-Jan-05 21:31N 46°57' E 031°59'0 0.0
2017-Jan-05 20:31N 46°57' E 031°59'0 0.0
2017-Jan-05 19:32N 46°57' E 031°59'0 0.0
2017-Jan-05 18:31N 46°57' E 031°59'0 0.0
2017-Jan-05 17:32N 46°57' E 031°59'0 0.0
2017-Jan-05 16:31N 46°57' E 031°59'0 0.0
2017-Jan-05 15:32N 46°57' E 031°59'0 0.0
2017-Jan-05 14:32N 46°57' E 031°59'0 0.0
2017-Jan-05 13:32N 46°57' E 031°59'0 0.0
2017-Jan-05 12:31N 46°57' E 031°59'0 0.0
2017-Jan-05 11:32N 46°57' E 031°59'0 0.0
2017-Jan-05 10:32N 46°57' E 031°59'0 0.0
2017-Jan-05 09:31N 46°57' E 031°59'0 0.0
2017-Jan-05 08:31N 46°57' E 031°59'0 0.0
2017-Jan-05 07:31N 46°57' E 031°59'0 0.0
2017-Jan-05 06:31N 46°57' E 031°59'0 0.0
2017-Jan-05 05:31N 46°57' E 031°59'0 0.0
2017-Jan-05 04:31N 46°57' E 031°59'0 0.0
2017-Jan-05 03:32N 46°57' E 031°59'0 0.0
2017-Jan-05 02:32N 46°57' E 031°59'0 0.0
2017-Jan-05 01:32N 46°57' E 031°59'0 0.0
2017-Jan-05 00:31N 46°57' E 031°59'0 0.0
2017-Jan-04 23:31N 46°57' E 031°59'0 0.0
2017-Jan-04 22:31N 46°57' E 031°59'0 0.0
2017-Jan-04 21:31N 46°57' E 031°59'0 0.0
2017-Jan-03 11:32N 46°57' E 031°59'0 0.0
2017-Jan-03 10:33N 46°57' E 031°59'2 2.4
2017-Jan-03 09:33N 46°54' E 032°01'1110.7
2017-Jan-03 08:34N 46°45' E 031°54'9 8.9
2017-Jan-03 07:33N 46°36' E 031°50'1111.4
2017-Jan-03 06:33N 46°35' E 031°34'10 9.5
2017-Jan-03 05:30N 46°35' E 031°19'1010.7
2017-Jan-03 04:32N 46°34' E 031°04'7 7.0
2017-Jan-03 03:33N 46°29' E 030°57'5 5.5
2017-Jan-03 02:33N 46°24' E 030°57'  
Track history (hours):
 
Tides and Currents Weather Stations Pressure Air Temp Water Temp Dewpoint Dewpoint Depression Visibility Wind Speed Wind Dir Waves Ship Positions

Panda

Last reported at 2017-Jan-13 02:24 UTC. Time now 2017-Jan-23 06:30 UTC.
Position N 37°23' E 025°55'.
Warning: this ship's position is 10 days out of date.

Length 171 m; draft 9.8 m.

Type: Cargo ship. MMSI: 352528000.

Date/timePositionNaut miles runAvg speedWind from/ knotsBaromVisibWave heightAir tempDewpointWater temp
2017-Jan-13 02:24N 37°23' E 025°55'4411.2
2017-Jan-12 22:27N 38°06' E 025°43'1011.2
2017-Jan-12 21:34N 38°16' E 025°43'1211.2
2017-Jan-12 20:31N 38°27' E 025°42'  
2017-Jan-08 17:19N 46°19' E 030°55'911.1
2017-Jan-08 16:31N 46°28' E 030°55'33 8.2
2017-Jan-08 12:27N 46°36' E 031°43'6 6.9
2017-Jan-08 11:32N 46°37' E 031°52'7 7.3
2017-Jan-08 10:33N 46°43' E 031°56'6 5.7
2017-Jan-08 09:33N 46°49' E 031°54'8 7.7
2017-Jan-08 08:33N 46°55' E 032°01'1 1.4
2017-Jan-08 07:32N 46°56' E 032°01'0 0.1
2017-Jan-08 06:32N 46°56' E 032°01'0 0.0
2017-Jan-08 05:32N 46°56' E 032°01'0 0.0
2017-Jan-08 04:32N 46°56' E 032°01'0 0.0
2017-Jan-08 03:32N 46°56' E 032°01'0 0.0
2017-Jan-08 02:32N 46°56' E 032°01'0 0.0
2017-Jan-08 01:32N 46°56' E 032°01'0 0.0
2017-Jan-08 00:32N 46°56' E 032°01'0 0.0
2017-Jan-07 23:32N 46°56' E 032°01'0 0.0
2017-Jan-07 22:32N 46°56' E 032°00'0 0.0
2017-Jan-07 21:32N 46°56' E 032°01'0 0.0
2017-Jan-07 20:32N 46°56' E 032°01'0 0.0
2017-Jan-07 19:32N 46°56' E 032°01'0 0.0
2017-Jan-07 18:32N 46°56' E 032°01'0 0.0
2017-Jan-07 17:32N 46°56' E 032°00'0 0.0
2017-Jan-07 16:32N 46°56' E 032°00'0 0.0
2017-Jan-07 15:32N 46°56' E 032°00'0 0.0
2017-Jan-07 14:29N 46°56' E 032°01'0 0.0
2017-Jan-07 13:32N 46°56' E 032°00'0 0.0
2017-Jan-07 12:32N 46°56' E 032°00'0 0.0
2017-Jan-07 11:32N 46°56' E 032°01'0 0.0
2017-Jan-07 10:32N 46°56' E 032°00'0 0.0
2017-Jan-07 09:32N 46°56' E 032°01'0 0.0
2017-Jan-07 08:32N 46°56' E 032°00'0 0.0
2017-Jan-07 07:29N 46°56' E 032°01'0 0.0
2017-Jan-07 06:29N 46°56' E 032°00'0 0.0
2017-Jan-07 05:29N 46°56' E 032°00'0 0.0
2017-Jan-07 04:29N 46°56' E 032°00'0 0.0
2017-Jan-07 03:29N 46°56' E 032°01'0 0.0
2017-Jan-07 02:29N 46°56' E 032°00'0 0.0
2017-Jan-07 01:32N 46°56' E 032°00'0 0.0
2017-Jan-07 00:29N 46°56' E 032°00'0 0.0
2017-Jan-06 23:32N 46°56' E 032°01'0 0.0
2017-Jan-06 22:29N 46°56' E 032°00'0 0.0
2017-Jan-06 21:32N 46°56' E 032°01'0 0.0
2017-Jan-06 20:29N 46°56' E 032°01'0 0.0
2017-Jan-06 19:32N 46°56' E 032°00'0 0.0
2017-Jan-06 18:29N 46°56' E 032°00'0 0.0
2017-Jan-06 17:29N 46°56' E 032°00'0 0.0
2017-Jan-06 16:32N 46°56' E 032°01'0 0.0
2017-Jan-06 15:29N 46°56' E 032°01'0 0.0
2017-Jan-06 14:32N 46°56' E 032°01'0 0.0
2017-Jan-06 13:29N 46°56' E 032°01'0 0.0
2017-Jan-06 12:29N 46°56' E 032°01'0 0.0
2017-Jan-06 11:32N 46°56' E 032°01'0 0.0
2017-Jan-06 10:29N 46°56' E 032°01'0 0.0
2017-Jan-06 09:29N 46°56' E 032°01'0 0.0
2017-Jan-06 08:32N 46°56' E 032°01'0 0.0
2017-Jan-06 07:29N 46°56' E 032°01'1 1.1
2017-Jan-06 06:31N 46°57' E 031°59'0 0.0
2017-Jan-06 05:28N 46°57' E 031°59'0 0.0
2017-Jan-06 04:31N 46°57' E 031°59'0 0.0
2017-Jan-06 03:32N 46°57' E 031°59'0 0.0
2017-Jan-06 02:31N 46°57' E 031°59'0 0.0
2017-Jan-06 01:31N 46°57' E 031°59'0 0.0
2017-Jan-06 00:31N 46°57' E 031°59'0 0.0
2017-Jan-05 23:31N 46°57' E 031°59'0 0.0
2017-Jan-05 22:32N 46°57' E 031°59'0 0.0
2017-Jan-05 21:31N 46°57' E 031°59'0 0.0
2017-Jan-05 20:31N 46°57' E 031°59'0 0.0
2017-Jan-05 19:32N 46°57' E 031°59'0 0.0
2017-Jan-05 18:31N 46°57' E 031°59'0 0.0
2017-Jan-05 17:32N 46°57' E 031°59'0 0.0
2017-Jan-05 16:31N 46°57' E 031°59'0 0.0
2017-Jan-05 15:32N 46°57' E 031°59'0 0.0
2017-Jan-05 14:32N 46°57' E 031°59'0 0.0
2017-Jan-05 13:32N 46°57' E 031°59'0 0.0
2017-Jan-05 12:31N 46°57' E 031°59'0 0.0
2017-Jan-05 11:32N 46°57' E 031°59'0 0.0
2017-Jan-05 10:32N 46°57' E 031°59'0 0.0
2017-Jan-05 09:31N 46°57' E 031°59'0 0.0
2017-Jan-05 08:31N 46°57' E 031°59'0 0.0
2017-Jan-05 07:31N 46°57' E 031°59'0 0.0
2017-Jan-05 06:31N 46°57' E 031°59'0 0.0
2017-Jan-05 05:31N 46°57' E 031°59'0 0.0
2017-Jan-05 04:31N 46°57' E 031°59'0 0.0
2017-Jan-05 03:32N 46°57' E 031°59'0 0.0
2017-Jan-05 02:32N 46°57' E 031°59'0 0.0
2017-Jan-05 01:32N 46°57' E 031°59'0 0.0
2017-Jan-05 00:31N 46°57' E 031°59'0 0.0
2017-Jan-04 23:31N 46°57' E 031°59'0 0.0
2017-Jan-04 22:31N 46°57' E 031°59'0 0.0
2017-Jan-04 21:31N 46°57' E 031°59'0 0.0
2017-Jan-03 11:32N 46°57' E 031°59'0 0.0
2017-Jan-03 10:33N 46°57' E 031°59'2 2.4
2017-Jan-03 09:33N 46°54' E 032°01'1110.7
2017-Jan-03 08:34N 46°45' E 031°54'9 8.9
2017-Jan-03 07:33N 46°36' E 031°50'1111.4
2017-Jan-03 06:33N 46°35' E 031°34'10 9.5
2017-Jan-03 05:30N 46°35' E 031°19'1010.7
2017-Jan-03 04:32N 46°34' E 031°04'7 7.0
2017-Jan-03 03:33N 46°29' E 030°57'5 5.5
2017-Jan-03 02:33N 46°24' E 030°57'  

Dump ship's entire track history